Time;durP1;ratioP1;P1;durP2;ratioP2;P2;SDS_P1;SDS_P2;PMS_P1;PMS_P2;Temp;Humidity;BMP_temperature;BMP_pressure;BME280_temperature;BME280_humidity;BME280_pressure;Samples;Min_cycle;Max_cycle;Signal;HPM_P1;HPM_P2
2023/03/22 00:01:37;;;;;;;0.10;0.10;;;7.60;99.90;;;;;;5040974;28;20033;-77
2023/03/22 00:04:02;;;;;;;2.83;2.72;;;7.50;99.90;;;;;;5039641;28;20025;-76
2023/03/22 00:06:28;;;;;;;0.00;0.00;;;7.80;99.90;;;;;;5038865;28;20412;-77
2023/03/22 00:08:55;;;;;;;0.00;0.00;;;10.50;99.90;;;;;;5038804;28;20100;-77
2023/03/22 00:11:24;;;;;;;0.00;0.00;;;7.50;99.90;;;;;;5084199;28;20040;-77
2023/03/22 00:13:51;;;;;;;0.00;0.00;;;7.50;99.90;;;;;;5065694;28;20031;-76
2023/03/22 00:16:17;;;;;;;0.00;0.00;;;7.30;99.90;;;;;;5081260;28;20119;-77
2023/03/22 00:18:44;;;;;;;0.10;0.10;;;7.20;99.90;;;;;;5081406;28;20059;-77
2023/03/22 00:21:12;;;;;;;0.00;0.00;;;7.20;99.90;;;;;;5093289;28;20020;-77
2023/03/22 00:23:41;;;;;;;2.38;2.28;;;7.20;99.90;;;;;;5083378;28;20030;-77
2023/03/22 00:26:08;;;;;;;0.63;0.63;;;7.20;99.90;;;;;;5090845;28;20020;-77
2023/03/22 00:28:35;;;;;;;0.10;0.10;;;7.20;99.90;;;;;;5082840;28;20020;-78
2023/03/22 00:31:01;;;;;;;0.00;0.00;;;7.20;99.90;;;;;;5096587;28;20244;-77
2023/03/22 00:33:29;;;;;;;0.08;0.08;;;7.10;99.90;;;;;;5064047;28;20020;-76
2023/03/22 00:36:07;;;;;;;0.20;0.20;;;7.10;99.90;;;;;;5085023;28;20039;-78
2023/03/22 00:38:35;;;;;;;0.00;0.00;;;7.10;99.90;;;;;;5082267;28;20047;-75
2023/03/22 00:41:05;;;;;;;0.00;0.00;;;7.70;99.90;;;;;;5082511;28;20094;-77
2023/03/22 00:43:31;;;;;;;0.00;0.00;;;7.10;99.90;;;;;;5081270;28;20093;-77
2023/03/22 00:45:57;;;;;;;0.00;0.00;;;7.00;99.90;;;;;;5069260;28;20602;-76
2023/03/22 00:48:22;;;;;;;0.00;0.00;;;7.00;99.90;;;;;;5087138;28;20040;-77
2023/03/22 00:50:48;;;;;;;0.45;0.45;;;7.30;99.90;;;;;;5082434;28;20074;-76
2023/03/22 00:53:14;;;;;;;0.00;0.00;;;6.80;99.90;;;;;;5082730;28;20077;-77
2023/03/22 00:55:40;;;;;;;0.00;0.00;;;6.10;99.90;;;;;;5082878;28;20643;-77
2023/03/22 00:58:14;;;;;;;0.10;0.10;;;6.70;99.90;;;;;;5088443;28;20035;-78
2023/03/22 01:00:39;;;;;;;;;;;6.70;99.90;;;;;;5093137;28;20040;-76
2023/03/22 01:03:05;;;;;;;0.20;0.20;;;6.70;99.90;;;;;;5082907;28;20136;-76
2023/03/22 01:05:32;;;;;;;0.08;0.08;;;6.70;99.90;;;;;;5083028;28;20104;-77
2023/03/22 01:08:07;;;;;;;0.10;0.10;;;6.60;99.90;;;;;;5082654;28;20312;-77
2023/03/22 01:10:37;;;;;;;0.10;0.10;;;6.60;99.90;;;;;;5087957;28;20260;-77
2023/03/22 01:13:28;;;;;;;0.03;0.03;;;9.50;99.90;;;;;;5070930;28;20024;-77
2023/03/22 01:15:54;;;;;;;0.10;0.10;;;6.60;99.90;;;;;;5082641;28;20028;-77
2023/03/22 01:18:19;;;;;;;0.10;0.10;;;6.50;99.90;;;;;;5081933;28;20291;-77
2023/03/22 01:20:45;;;;;;;0.30;0.30;;;6.50;99.90;;;;;;5085049;28;20301;-77
2023/03/22 01:23:12;;;;;;;0.10;0.10;;;6.90;99.90;;;;;;5084342;28;20510;-76
2023/03/22 01:25:38;;;;;;;0.00;0.00;;;6.40;99.90;;;;;;5064048;28;20394;-77
2023/03/22 01:28:05;;;;;;;0.00;0.00;;;6.40;99.90;;;;;;5086845;28;20030;-76
2023/03/22 01:30:31;;;;;;;0.10;0.10;;;6.30;99.90;;;;;;5083998;28;20043;-76
2023/03/22 01:32:57;;;;;;;0.10;0.10;;;6.20;99.90;;;;;;5084425;28;20029;-77
2023/03/22 01:35:23;;;;;;;0.00;0.00;;;6.20;99.90;;;;;;5094268;28;20020;-77
2023/03/22 01:37:49;;;;;;;0.10;0.10;;;6.20;99.90;;;;;;5074306;28;20432;-77
2023/03/22 01:40:15;;;;;;;0.00;0.00;;;6.20;99.90;;;;;;5085841;28;20024;-75
2023/03/22 01:42:41;;;;;;;0.00;0.00;;;6.20;99.90;;;;;;5099008;28;20024;-77
2023/03/22 01:45:12;;;;;;;0.00;0.00;;;6.20;99.90;;;;;;5089715;28;20024;-76
2023/03/22 01:47:44;;;;;;;0.75;0.75;;;6.10;99.90;;;;;;5092346;28;20249;-77
2023/03/22 01:50:10;;;;;;;0.10;0.10;;;6.20;99.90;;;;;;5075879;28;20032;-77
2023/03/22 01:52:36;;;;;;;0.10;0.10;;;6.20;99.90;;;;;;5090909;28;20312;-77
2023/03/22 01:55:05;;;;;;;0.17;0.17;;;6.20;99.90;;;;;;5090552;28;20137;-77
2023/03/22 01:57:42;;;;;;;0.00;0.00;;;6.20;99.90;;;;;;5088042;28;20113;-78
2023/03/22 02:00:14;;;;;;;0.10;0.10;;;6.10;99.90;;;;;;5071114;28;20107;-75
2023/03/22 02:02:45;;;;;;;0.10;0.10;;;6.10;99.90;;;;;;5085910;28;20177;-75
2023/03/22 02:05:11;;;;;;;0.10;0.10;;;6.10;99.90;;;;;;5097257;28;20081;-75
2023/03/22 02:07:40;;;;;;;0.10;0.10;;;6.00;99.90;;;;;;5098937;28;20293;-75
2023/03/22 02:10:26;;;;;;;0.00;0.00;;;6.10;99.90;;;;;;5094928;28;20339;-75
2023/03/22 02:13:13;;;;;;;0.10;0.10;;;6.00;99.90;;;;;;5091577;28;20540;-78
2023/03/22 02:15:54;;;;;;;0.10;0.10;;;6.70;99.90;;;;;;5075165;28;20024;-76
2023/03/22 02:18:39;;;;;;;0.10;0.10;;;6.00;99.90;;;;;;5066140;28;20105;-75
2023/03/22 02:21:11;;;;;;;0.10;0.10;;;6.00;99.90;;;;;;5068308;28;20100;-76
2023/03/22 02:24:13;;;;;;;0.00;0.00;;;6.00;99.90;;;;;;5087405;28;20008;-74
2023/03/22 02:26:48;;;;;;;0.10;0.10;;;5.90;99.90;;;;;;5095521;28;20032;-77
2023/03/22 02:29:21;;;;;;;0.00;0.00;;;5.90;99.90;;;;;;5088118;28;20330;-75
2023/03/22 02:31:56;;;;;;;0.10;0.10;;;5.80;99.90;;;;;;5086209;28;20024;-74
2023/03/22 02:34:44;;;;;;;0.10;0.10;;;5.80;99.90;;;;;;5084251;28;20048;-75
2023/03/22 02:37:28;;;;;;;0.00;0.00;;;5.80;99.90;;;;;;5084816;28;20032;-77
2023/03/22 02:40:12;;;;;;;;;;;5.80;99.90;;;;;;5084576;28;20335;-77
2023/03/22 02:42:56;;;;;;;0.10;0.10;;;5.70;99.90;;;;;;5084222;28;19904;-75
2023/03/22 02:45:35;;;;;;;0.00;0.00;;;5.70;99.90;;;;;;5083494;28;20031;-77
2023/03/22 02:48:13;;;;;;;0.10;0.10;;;5.70;99.90;;;;;;5096103;28;20076;-77
2023/03/22 02:50:53;;;;;;;0.10;0.10;;;5.60;99.90;;;;;;5088148;28;20085;-75
2023/03/22 02:53:36;;;;;;;0.73;0.73;;;5.50;99.90;;;;;;5083846;28;20096;-77
2023/03/22 02:56:08;;;;;;;0.10;0.10;;;5.50;99.90;;;;;;5065676;28;20046;-77
2023/03/22 02:58:44;;;;;;;0.10;0.10;;;5.40;99.90;;;;;;5084703;28;20031;-75
2023/03/22 03:01:24;;;;;;;0.10;0.10;;;5.40;99.90;;;;;;5088632;28;20329;-77
2023/03/22 03:03:55;;;;;;;0.10;0.10;;;5.30;99.90;;;;;;5088759;28;20024;-77
2023/03/22 03:06:25;;;;;;;0.40;0.40;;;5.20;99.90;;;;;;5103419;28;20082;-77
2023/03/22 03:08:52;;;;;;;1.75;1.65;;;5.20;99.90;;;;;;5097221;28;20021;-77
2023/03/22 03:11:18;;;;;;;0.05;0.05;;;5.20;99.90;;;;;;5075488;28;20112;-77
2023/03/22 03:13:49;;;;;;;0.08;0.08;;;5.10;99.90;;;;;;5070835;28;20062;-77
2023/03/22 03:16:20;;;;;;;0.10;0.10;;;5.10;99.90;;;;;;5072316;28;20047;-77
2023/03/22 03:19:02;;;;;;;0.10;0.10;;;7.00;99.90;;;;;;5066025;28;20030;-77
2023/03/22 03:21:57;;;;;;;0.10;0.10;;;5.00;99.90;;;;;;5085975;28;20028;-77
2023/03/22 03:24:34;;;;;;;0.10;0.10;;;5.00;99.90;;;;;;5087669;28;20021;-76
2023/03/22 03:27:21;;;;;;;0.10;0.10;;;4.90;99.90;;;;;;5084816;28;20031;-77
2023/03/22 03:30:03;;;;;;;0.10;0.10;;;5.00;99.90;;;;;;5082373;28;20109;-77
2023/03/22 03:32:37;;;;;;;0.10;0.10;;;5.00;99.90;;;;;;5082479;28;20032;-76
2023/03/22 03:35:05;;;;;;;;;;;4.90;99.90;;;;;;5084935;28;20084;-77
2023/03/22 03:37:40;;;;;;;17.38;15.52;;;4.90;99.90;;;;;;5085224;28;19910;-78
2023/03/22 03:40:30;;;;;;;0.10;0.10;;;3.50;99.90;;;;;;5090717;28;20028;-76
2023/03/22 03:43:00;;;;;;;0.17;0.17;;;4.90;99.90;;;;;;5043569;28;20098;-77
2023/03/22 03:45:26;;;;;;;0.10;0.10;;;4.90;99.90;;;;;;5039667;28;20029;-77
2023/03/22 03:47:56;;;;;;;0.10;0.10;;;4.90;99.90;;;;;;5041403;28;20096;-78
2023/03/22 03:50:25;;;;;;;0.20;0.20;;;4.80;99.90;;;;;;5044197;28;20025;-75
2023/03/22 03:52:52;;;;;;;0.10;0.10;;;4.80;99.90;;;;;;5042207;28;20021;-75
2023/03/22 03:55:19;;;;;;;0.10;0.10;;;4.70;99.90;;;;;;5022269;28;20206;-77
2023/03/22 03:57:45;;;;;;;0.20;0.20;;;4.70;99.90;;;;;;5042695;28;20036;-76
2023/03/22 04:00:15;;;;;;;0.20;0.20;;;4.70;99.90;;;;;;5042500;28;20056;-76
2023/03/22 04:02:43;;;;;;;0.10;0.10;;;4.60;99.90;;;;;;5042779;28;20104;-75
2023/03/22 04:05:10;;;;;;;0.20;0.20;;;4.60;99.90;;;;;;5039282;28;20078;-75
2023/03/22 04:07:36;;;;;;;0.10;0.10;;;4.60;99.90;;;;;;5039942;28;20068;-75
2023/03/22 04:10:03;;;;;;;0.10;0.10;;;4.60;99.90;;;;;;5046582;28;20067;-77
2023/03/22 04:12:28;;;;;;;0.10;0.10;;;4.70;99.90;;;;;;5040604;28;20517;-75
2023/03/22 04:14:57;;;;;;;0.25;0.25;;;4.70;99.90;;;;;;5040334;28;20096;-75
2023/03/22 04:17:23;;;;;;;19.10;17.25;;;4.70;99.90;;;;;;5044944;28;20098;-75
2023/03/22 04:19:52;;;;;;;0.57;0.57;;;;;;;;;;5061599;28;20032;-75
2023/03/22 04:22:18;;;;;;;0.20;0.20;;;4.60;99.90;;;;;;5082994;28;20024;-75
2023/03/22 04:24:48;;;;;;;0.20;0.20;;;4.60;99.90;;;;;;5081953;28;20024;-75
2023/03/22 04:27:18;;;;;;;0.10;0.10;;;4.50;99.90;;;;;;5081762;28;20024;-74
2023/03/22 04:29:47;;;;;;;1.10;1.10;;;4.50;99.90;;;;;;5084632;28;20336;-75
2023/03/22 04:32:15;;;;;;;0.10;0.10;;;4.50;99.90;;;;;;5083948;28;20044;-75
2023/03/22 04:34:41;;;;;;;0.10;0.10;;;4.60;99.90;;;;;;5091001;28;20024;-75
2023/03/22 04:37:07;;;;;;;0.10;0.10;;;4.70;99.90;;;;;;5082680;28;20036;-75
2023/03/22 04:39:33;;;;;;;0.10;0.10;;;4.60;99.90;;;;;;5064290;28;20048;-75
2023/03/22 04:41:59;;;;;;;0.10;0.10;;;4.70;99.90;;;;;;5088558;28;20047;-76
2023/03/22 04:44:26;;;;;;;0.10;0.10;;;4.60;99.90;;;;;;5083584;28;20047;-75
2023/03/22 04:46:52;;;;;;;0.10;0.10;;;4.70;99.90;;;;;;5062936;28;20036;-75
2023/03/22 04:49:18;;;;;;;0.10;0.10;;;4.70;99.90;;;;;;5081134;28;20020;-79
2023/03/22 04:51:45;;;;;;;0.13;0.13;;;4.80;99.90;;;;;;5067736;28;20032;-75
2023/03/22 04:54:11;;;;;;;0.10;0.10;;;4.90;99.90;;;;;;5087460;28;20023;-75
2023/03/22 04:56:36;;;;;;;0.13;0.13;;;4.90;99.90;;;;;;5087454;28;20036;-75
2023/03/22 04:59:03;;;;;;;0.20;0.20;;;4.90;99.90;;;;;;5085876;28;20394;-76
2023/03/22 05:01:28;;;;;;;0.10;0.10;;;4.90;99.90;;;;;;5081310;28;20042;-75
2023/03/22 05:03:54;;;;;;;0.10;0.10;;;5.00;99.90;;;;;;5081511;28;20582;-76
2023/03/22 05:06:20;;;;;;;0.08;0.08;;;5.00;99.90;;;;;;5081127;28;20093;-75
2023/03/22 05:08:46;;;;;;;0.20;0.20;;;5.10;99.90;;;;;;5085183;28;20028;-75
2023/03/22 05:11:23;;;;;;;0.08;0.08;;;5.10;99.90;;;;;;5062439;28;20522;-77
2023/03/22 05:13:48;;;;;;;0.20;0.20;;;5.20;99.90;;;;;;5080426;28;20474;-77
2023/03/22 05:16:14;;;;;;;0.10;0.10;;;5.20;99.90;;;;;;5064780;28;20067;-77
2023/03/22 05:18:44;;;;;;;0.20;0.20;;;5.30;99.90;;;;;;5081732;28;20101;-76
2023/03/22 05:21:14;;;;;;;0.10;0.10;;;5.20;99.90;;;;;;5084169;28;20016;-75
2023/03/22 05:23:41;;;;;;;38.45;10.60;;;5.30;99.90;;;;;;5091626;28;20482;-75
2023/03/22 05:26:07;;;;;;;0.10;0.10;;;5.40;99.90;;;;;;5066251;28;20470;-76
2023/03/22 05:28:36;;;;;;;0.08;0.08;;;5.40;99.90;;;;;;5067455;28;20024;-76
2023/03/22 05:31:02;;;;;;;0.30;0.30;;;5.40;99.90;;;;;;5084641;28;20020;-76
2023/03/22 05:33:28;;;;;;;0.10;0.10;;;5.50;99.90;;;;;;5084052;28;20024;-76
2023/03/22 05:35:54;;;;;;;0.10;0.10;;;5.50;99.90;;;;;;5083510;28;20279;-75
2023/03/22 05:38:24;;;;;;;0.10;0.10;;;5.60;99.90;;;;;;5082944;28;20052;-76
2023/03/22 05:40:50;;;;;;;0.10;0.10;;;5.60;99.90;;;;;;5084620;28;20313;-76
2023/03/22 05:43:16;;;;;;;0.05;0.05;;;5.70;99.90;;;;;;5085066;28;20471;-76
2023/03/22 05:45:42;;;;;;;3.45;3.35;;;5.70;99.90;;;;;;5062626;28;20024;-75
2023/03/22 05:48:08;;;;;;;0.00;0.00;;;5.70;99.90;;;;;;5085062;28;20031;-75
2023/03/22 05:50:34;;;;;;;0.10;0.10;;;5.80;99.90;;;;;;5089515;28;20070;-76
2023/03/22 05:53:00;;;;;;;0.10;0.10;;;5.80;99.90;;;;;;5084094;28;20020;-75
2023/03/22 05:55:29;;;;;;;5.07;3.60;;;6.80;99.90;;;;;;5087509;28;20042;-75
2023/03/22 05:57:55;;;;;;;0.10;0.10;;;5.90;99.90;;;;;;5081658;28;20047;-75
2023/03/22 06:00:22;;;;;;;0.00;0.00;;;5.90;99.90;;;;;;5085050;28;20043;-75
2023/03/22 06:02:51;;;;;;;0.00;0.00;;;6.00;99.90;;;;;;5080973;28;20545;-75
2023/03/22 06:05:23;;;;;;;0.10;0.10;;;6.00;99.90;;;;;;5063175;28;20012;-76
2023/03/22 06:07:49;;;;;;;0.10;0.10;;;6.10;99.90;;;;;;5048864;28;20039;-75
2023/03/22 06:10:15;;;;;;;0.10;0.10;;;6.20;99.90;;;;;;5093122;28;20312;-76
2023/03/22 06:12:41;;;;;;;0.10;0.10;;;6.30;99.90;;;;;;5062479;28;20479;-75
2023/03/22 06:15:09;;;;;;;0.20;0.20;;;6.30;99.90;;;;;;5083706;28;20416;-75
2023/03/22 06:17:35;;;;;;;3.50;3.35;;;6.40;99.90;;;;;;5082373;28;20028;-76
2023/03/22 06:20:08;;;;;;;0.10;0.10;;;6.50;99.90;;;;;;5082831;28;20300;-76
2023/03/22 06:22:35;;;;;;;0.10;0.10;;;6.60;99.90;;;;;;5086291;28;20093;-76
2023/03/22 06:25:01;;;;;;;0.10;0.10;;;6.70;99.90;;;;;;5087282;28;20020;-75
2023/03/22 06:27:27;;;;;;;0.20;0.20;;;6.80;99.90;;;;;;5083271;28;20193;-75
2023/03/22 06:29:54;;;;;;;0.30;0.30;;;6.90;99.90;;;;;;5091099;28;20017;-75
2023/03/22 06:32:22;;;;;;;8.13;7.82;;;7.00;99.90;;;;;;5083755;28;20077;-75
2023/03/22 06:34:49;;;;;;;0.10;0.10;;;7.10;99.90;;;;;;5088021;28;20076;-75
2023/03/22 06:37:15;;;;;;;0.00;0.00;;;7.20;99.90;;;;;;5097517;28;20020;-76
2023/03/22 06:39:43;;;;;;;0.00;0.00;;;6.90;99.90;;;;;;5074518;28;20101;-76
2023/03/22 06:42:09;;;;;;;0.10;0.10;;;7.50;99.90;;;;;;5092994;28;20138;-76
2023/03/22 06:44:35;;;;;;;0.03;0.03;;;7.50;99.90;;;;;;5086221;28;20008;-75
2023/03/22 06:47:02;;;;;;;1.88;1.83;;;7.20;99.90;;;;;;5084348;28;20383;-75
2023/03/22 06:49:28;;;;;;;0.22;0.22;;;7.60;99.90;;;;;;5081012;28;20028;-75
2023/03/22 06:51:53;;;;;;;0.05;0.05;;;7.60;99.90;;;;;;5098840;28;20221;-78
2023/03/22 06:54:19;;;;;;;0.10;0.10;;;7.80;99.90;;;;;;5091604;28;20376;-76
2023/03/22 06:56:47;;;;;;;0.00;0.00;;;7.80;99.90;;;;;;5092448;28;20048;-75
2023/03/22 06:59:13;;;;;;;0.28;0.28;;;8.00;99.90;;;;;;5086664;28;20417;-75
2023/03/22 07:01:38;;;;;;;0.10;0.10;;;8.10;99.90;;;;;;5073408;28;20076;-76
2023/03/22 07:04:04;;;;;;;1.00;1.00;;;8.20;99.90;;;;;;5073965;28;20032;-76
2023/03/22 07:06:31;;;;;;;0.00;0.00;;;;;;;;;;5078759;28;20549;-76
2023/03/22 07:09:01;;;;;;;0.05;0.05;;;8.30;99.90;;;;;;5082803;28;20087;-76
2023/03/22 07:11:28;;;;;;;1.13;0.88;;;8.30;99.90;;;;;;5091470;28;20094;-76
2023/03/22 07:13:54;;;;;;;0.00;0.00;;;8.50;99.90;;;;;;5090382;28;20020;-76
2023/03/22 07:16:22;;;;;;;0.00;0.00;;;8.70;99.90;;;;;;5097360;28;20036;-75
2023/03/22 07:18:49;;;;;;;0.08;0.08;;;8.80;99.90;;;;;;5071946;28;20028;-75
2023/03/22 07:21:15;;;;;;;0.35;0.35;;;8.80;99.90;;;;;;5091992;28;20032;-75
2023/03/22 07:23:41;;;;;;;4.68;4.47;;;9.00;99.90;;;;;;5090722;28;20023;-75
2023/03/22 07:26:07;;;;;;;13.35;2.88;;;9.00;99.90;;;;;;5073984;28;20096;-76
2023/03/22 07:28:32;;;;;;;0.20;0.20;;;9.10;99.90;;;;;;5073708;28;20075;-77
2023/03/22 07:31:04;;;;;;;0.08;0.08;;;9.20;99.90;;;;;;5085793;28;20231;-79
2023/03/22 07:33:30;;;;;;;0.00;0.00;;;9.20;99.90;;;;;;5088533;28;20100;-77
2023/03/22 07:35:56;;;;;;;0.25;0.25;;;9.40;99.90;;;;;;5088972;28;20115;-78
2023/03/22 07:38:22;;;;;;;0.10;0.10;;;9.50;99.90;;;;;;5087025;28;20094;-77
2023/03/22 07:40:53;;;;;;;0.43;0.43;;;9.50;99.90;;;;;;5089488;28;20663;-75
2023/03/22 07:43:21;;;;;;;0.10;0.10;;;9.60;99.90;;;;;;5088183;28;20097;-78
2023/03/22 07:45:51;;;;;;;0.40;0.40;;;9.80;99.90;;;;;;5073909;28;20016;-77
2023/03/22 07:48:18;;;;;;;0.10;0.10;;;8.60;99.90;;;;;;5078036;28;20224;-78
2023/03/22 07:50:51;;;;;;;0.10;0.10;;;11.60;99.90;;;;;;5096594;28;20020;-75
2023/03/22 07:53:20;;;;;;;0.00;0.00;;;10.10;99.90;;;;;;5095275;28;20020;-78
2023/03/22 07:55:50;;;;;;;1.08;1.08;;;10.20;99.90;;;;;;5080203;28;20062;-78
2023/03/22 07:58:15;;;;;;;0.10;0.10;;;7.40;99.90;;;;;;5091785;28;20016;-75
2023/03/22 08:00:41;;;;;;;0.40;0.40;;;10.40;99.90;;;;;;5075562;28;20028;-80
2023/03/22 08:03:09;;;;;;;0.10;0.10;;;10.80;99.90;;;;;;5088739;28;20052;-78
2023/03/22 08:05:35;;;;;;;0.10;0.10;;;10.70;99.90;;;;;;5088060;28;20020;-77
2023/03/22 08:08:02;;;;;;;0.10;0.10;;;10.80;99.90;;;;;;5072963;28;20048;-77
2023/03/22 08:10:28;;;;;;;0.10;0.10;;;10.90;99.90;;;;;;5088232;28;20058;-78
2023/03/22 08:12:54;;;;;;;0.40;0.40;;;10.90;99.90;;;;;;5066268;28;20066;-77
2023/03/22 08:15:20;;;;;;;0.20;0.20;;;11.70;99.90;;;;;;5084406;28;20039;-79
2023/03/22 08:17:48;;;;;;;0.10;0.10;;;11.00;99.90;;;;;;5089529;28;20024;-78
2023/03/22 08:20:17;;;;;;;1.77;1.70;;;11.00;99.90;;;;;;5069557;28;20020;-77
2023/03/22 08:22:44;;;;;;;0.95;0.95;;;11.00;99.90;;;;;;5093450;28;20043;-78
2023/03/22 08:25:10;;;;;;;0.85;0.85;;;11.10;99.90;;;;;;5070130;28;20216;-78
2023/03/22 08:27:36;;;;;;;0.10;0.10;;;10.80;99.90;;;;;;5093462;28;20020;-75
2023/03/22 08:30:04;;;;;;;0.10;0.10;;;10.90;99.90;;;;;;5086178;28;20070;-75
2023/03/22 08:32:44;;;;;;;0.10;0.10;;;11.10;99.90;;;;;;5099764;28;20288;-76
2023/03/22 08:35:12;;;;;;;0.10;0.10;;;11.20;99.90;;;;;;5081851;28;20743;-76
2023/03/22 08:37:40;;;;;;;3.78;2.80;;;11.30;99.90;;;;;;5083325;28;20062;-77
2023/03/22 08:40:16;;;;;;;1.45;1.38;;;11.30;99.90;;;;;;5100752;28;20028;-77
2023/03/22 08:42:42;;;;;;;0.10;0.10;;;8.80;99.90;;;;;;5083880;28;20031;-76
2023/03/22 08:45:28;;;;;;;4.20;3.92;;;11.40;99.90;;;;;;5073835;28;20020;-81
2023/03/22 08:47:56;;;;;;;0.10;0.10;;;11.50;99.90;;;;;;5089546;28;20028;-76
2023/03/22 08:50:25;;;;;;;0.10;0.10;;;11.60;99.90;;;;;;5095329;28;20034;-76
2023/03/22 08:52:52;;;;;;;1.73;1.63;;;11.60;99.90;;;;;;5087388;28;20028;-76
2023/03/22 08:55:23;;;;;;;2.35;2.25;;;11.70;99.90;;;;;;5087116;28;20020;-76
2023/03/22 08:57:50;;;;;;;0.20;0.20;;;9.60;99.90;;;;;;5067633;28;20741;-77
2023/03/22 09:00:17;;;;;;;0.15;0.15;;;11.70;99.90;;;;;;5081934;28;20036;-77
2023/03/22 09:02:46;;;;;;;0.20;0.20;;;11.90;99.90;;;;;;5045608;28;20035;-76
2023/03/22 09:05:13;;;;;;;0.10;0.10;;;11.90;99.90;;;;;;5045176;28;20125;-79
2023/03/22 09:07:41;;;;;;;0.22;0.22;;;12.10;99.90;;;;;;5083596;28;20267;-78
2023/03/22 09:10:08;;;;;;;1.15;1.15;;;12.20;99.90;;;;;;5082879;28;20635;-82
2023/03/22 09:12:35;;;;;;;0.30;0.30;;;12.40;99.90;;;;;;5078825;28;20103;-77
2023/03/22 09:15:01;;;;;;;0.20;0.20;;;12.50;99.90;;;;;;5078727;28;20392;-80
2023/03/22 09:17:29;;;;;;;0.60;0.60;;;12.50;99.90;;;;;;5061008;28;20039;-82
2023/03/22 09:19:55;;;;;;;3.28;3.08;;;12.60;99.90;;;;;;5078718;28;20024;-78
2023/03/22 09:22:21;;;;;;;1.38;1.33;;;;;;;;;;5079089;28;20319;-78
2023/03/22 09:25:20;;;;;;;0.15;0.15;;;12.90;99.90;;;;;;5076501;28;20062;-79
2023/03/22 09:27:46;;;;;;;0.30;0.30;;;15.50;99.90;;;;;;5060948;28;20122;-85
2023/03/22 09:30:12;;;;;;;0.20;0.20;;;13.10;99.90;;;;;;5061296;28;20123;-83
2023/03/22 09:32:38;;;;;;;5.60;5.15;;;13.40;99.90;;;;;;5079233;28;20028;-82
2023/03/22 09:35:05;;;;;;;0.35;0.35;;;13.20;99.90;;;;;;5061834;28;20312;-79
2023/03/22 09:37:30;;;;;;;1.58;1.52;;;13.40;99.90;;;;;;5061546;28;20645;-86
2023/03/22 09:39:58;;;;;;;0.20;0.20;;;13.10;99.90;;;;;;5061345;28;20044;-76
2023/03/22 09:42:23;;;;;;;0.20;0.20;;;13.70;99.90;;;;;;5079886;28;20034;-80
2023/03/22 09:44:50;;;;;;;1.13;1.13;;;13.30;99.90;;;;;;5081416;28;20016;-82
2023/03/22 09:47:24;;;;;;;0.20;0.20;;;13.70;99.90;;;;;;5084349;28;20008;-81
2023/03/22 09:50:01;;;;;;;0.47;0.47;;;13.30;99.90;;;;;;5085479;28;20024;-80
2023/03/22 09:52:29;;;;;;;0.10;0.10;;;13.40;99.90;;;;;;5082686;28;20058;-82
2023/03/22 09:54:55;;;;;;;0.10;0.10;;;13.60;99.90;;;;;;5080377;28;20046;-85
2023/03/22 09:57:20;;;;;;;1.00;1.00;;;13.70;99.90;;;;;;5080365;28;20588;-87
2023/03/22 10:00:13;;;;;;;4.10;3.80;;;14.10;99.90;;;;;;5062265;28;20078;-83
2023/03/22 10:02:39;;;;;;;1.60;1.52;;;14.50;99.90;;;;;;5082859;28;20099;-83
2023/03/22 10:05:24;;;;;;;0.20;0.20;;;14.70;99.90;;;;;;5070792;28;20556;-83
2023/03/22 10:08:16;;;;;;;0.20;0.20;;;14.40;99.90;;;;;;5072338;28;20038;-76
2023/03/22 10:10:42;;;;;;;0.10;0.10;;;14.20;99.90;;;;;;5088099;28;20071;-80
2023/03/22 10:13:37;;;;;;;0.20;0.20;;;14.10;99.90;;;;;;5077698;28;20073;-76
2023/03/22 10:16:10;;;;;;;2.50;2.40;;;14.00;99.90;;;;;;5075873;28;20487;-83
2023/03/22 10:18:46;;;;;;;0.10;0.10;;;14.00;99.90;;;;;;5059933;28;20020;-79
2023/03/22 10:21:14;;;;;;;3.80;3.60;;;14.00;99.90;;;;;;5059915;28;20560;-80
2023/03/22 10:24:02;;;;;;;0.82;0.82;;;13.80;99.90;;;;;;5078127;28;20244;-85
2023/03/22 10:26:35;;;;;;;1.10;1.10;;;13.70;99.90;;;;;;5078471;28;20020;-78
2023/03/22 10:29:14;;;;;;;0.20;0.20;;;13.70;99.90;;;;;;5082435;28;20012;-86
2023/03/22 10:31:43;;;;;;;0.55;0.55;;;13.80;99.90;;;;;;5064521;28;20307;-81
2023/03/22 10:34:20;;;;;;;1.40;1.30;;;13.90;99.90;;;;;;5084865;28;20008;-84
2023/03/22 10:36:48;;;;;;;0.20;0.20;;;14.10;99.90;;;;;;5085533;28;20036;-82
2023/03/22 10:39:29;;;;;;;0.10;0.10;;;14.30;99.90;;;;;;5085061;28;20549;-78
2023/03/22 10:41:58;;;;;;;2.05;1.95;;;13.80;99.90;;;;;;5085971;28;20328;-77
2023/03/22 10:44:26;;;;;;;2.25;2.20;;;15.10;99.90;;;;;;5064875;28;20461;-77
2023/03/22 10:46:54;;;;;;;0.25;0.25;;;15.20;99.90;;;;;;5063879;28;20253;-77
2023/03/22 10:49:34;;;;;;;1.35;1.30;;;15.40;99.90;;;;;;5064218;28;20165;-80
2023/03/22 10:52:14;;;;;;;0.35;0.35;;;15.50;95.90;;;;;;5083012;28;20503;-79
2023/03/22 10:54:40;;;;;;;0.20;0.20;;;15.40;97.20;;;;;;5064658;28;20248;-85
2023/03/22 10:57:05;;;;;;;0.20;0.20;;;15.50;96.50;;;;;;5063973;28;20036;-79
2023/03/22 10:59:51;;;;;;;5.40;4.57;;;15.80;94.50;;;;;;5082193;28;20072;-79
2023/03/22 11:02:26;;;;;;;0.20;0.20;;;15.60;93.90;;;;;;5064018;28;20202;-79
2023/03/22 11:05:01;;;;;;;1.08;1.00;;;15.50;96.00;;;;;;5064007;28;20099;-82
2023/03/22 11:07:34;;;;;;;2.00;1.90;;;15.50;96.30;;;;;;5081993;28;20016;-79
2023/03/22 11:10:09;;;;;;;1.65;1.55;;;15.80;96.40;;;;;;5063883;28;20020;-87
2023/03/22 11:13:07;;;;;;;0.20;0.20;;;16.10;94.50;;;;;;5063935;28;20036;-84
2023/03/22 11:15:37;;;;;;;0.10;0.10;;;16.50;93.10;;;;;;5063253;28;20031;-83
2023/03/22 11:18:15;;;;;;;0.52;0.52;;;17.00;90.40;;;;;;5081874;28;20313;-81
2023/03/22 11:20:51;;;;;;;0.10;0.10;;;17.30;85.70;;;;;;5064239;28;20028;-82
2023/03/22 11:23:20;;;;;;;0.10;0.10;;;17.40;81.60;;;;;;5081478;28;20039;-80
2023/03/22 11:25:48;;;;;;;0.10;0.10;;;17.90;80.20;;;;;;5081387;28;20612;-84
2023/03/22 11:28:19;;;;;;;1.75;1.65;;;17.20;79.20;;;;;;5082388;28;20028;-87
2023/03/22 11:31:03;;;;;;;0.40;0.40;;;16.00;74.30;;;;;;5063329;28;20286;-80
2023/03/22 11:33:29;;;;;;;2.05;1.98;;;18.40;72.30;;;;;;5079828;28;20278;-77
2023/03/22 11:36:15;;;;;;;0.20;0.20;;;18.10;74.50;;;;;;5062111;28;20032;-81
2023/03/22 11:38:44;;;;;;;0.40;0.40;;;18.20;74.20;;;;;;5080168;28;20127;-86
2023/03/22 11:41:27;;;;;;;0.10;0.10;;;18.60;74.50;;;;;;5080283;28;20043;-85
2023/03/22 11:43:57;;;;;;;3.15;2.85;;;19.20;72.30;;;;;;5081166;28;20024;-83
2023/03/22 11:46:23;;;;;;;0.20;0.15;;;19.50;69.50;;;;;;5080707;28;20047;-84
2023/03/22 11:48:51;;;;;;;1.23;1.23;;;19.20;69.50;;;;;;5080442;28;20125;-85
2023/03/22 11:51:31;;;;;;;0.15;0.15;;;18.60;70.20;;;;;;5061349;28;20381;-78
2023/03/22 11:54:05;;;;;;;1.10;1.00;;;18.40;72.80;;;;;;5081119;28;20305;-81
2023/03/22 11:56:31;;;;;;;0.32;0.32;;;18.10;73.30;;;;;;5062606;28;20127;-83
2023/03/22 11:59:05;;;;;;;0.45;0.45;;;17.90;73.70;;;;;;5080767;28;20300;-79
2023/03/22 12:01:43;;;;;;;2.97;2.85;;;17.80;72.20;;;;;;5080120;28;20109;-84
2023/03/22 12:04:15;;;;;;;0.10;0.10;;;17.30;74.50;;;;;;5062329;28;20050;-78
2023/03/22 12:06:41;;;;;;;1.10;1.10;;;15.60;75.30;;;;;;5080854;28;20051;-81
2023/03/22 12:09:42;;;;;;;0.10;0.10;;;17.30;76.20;;;;;;5062030;28;20052;-80
2023/03/22 12:12:18;;;;;;;0.68;0.68;;;17.40;72.60;;;;;;5080635;28;20103;-78
2023/03/22 12:15:24;;;;;;;3.72;2.35;;;17.50;71.70;;;;;;5079943;28;20024;-80
2023/03/22 12:17:59;;;;;;;1.05;1.05;;;17.50;71.70;;;;;;5036362;28;20048;-76
2023/03/22 12:20:44;;;;;;;0.08;0.08;;;17.20;71.90;;;;;;5036853;28;20033;-78
2023/03/22 12:23:16;;;;;;;0.10;0.10;;;17.40;71.70;;;;;;5020060;28;20029;-81
2023/03/22 12:25:59;;;;;;;0.10;0.10;;;17.60;72.00;;;;;;5036376;28;20214;-84
2023/03/22 12:28:39;;;;;;;0.10;0.10;;;18.30;70.00;;;;;;5036175;28;20036;-84
2023/03/22 12:31:10;;;;;;;0.10;0.10;;;18.80;67.10;;;;;;5036079;28;20025;-81
2023/03/22 12:33:53;;;;;;;0.30;0.30;;;19.40;65.70;;;;;;5035931;28;20025;-80
2023/03/22 12:36:41;;;;;;;0.00;0.00;;;19.70;65.90;;;;;;5035905;28;20410;-86
2023/03/22 12:39:38;;;;;;;0.20;0.20;;;21.30;64.30;;;;;;5036558;28;20385;-90
2023/03/22 12:42:20;;;;;;;0.17;0.17;;;19.90;62.20;;;;;;5033224;28;20257;-78
2023/03/22 12:44:49;;;;;;;0.03;0.03;;;20.00;62.00;;;;;;5036318;28;20234;-81
2023/03/22 12:47:31;;;;;;;3.97;1.02;;;19.60;61.00;;;;;;5036776;28;20270;-87
2023/03/22 12:50:11;;;;;;;0.10;0.10;;;19.60;62.00;;;;;;5019649;28;20036;-82
2023/03/22 12:52:40;;;;;;;0.10;0.10;;;19.80;62.70;;;;;;5036574;28;20033;-83
2023/03/22 12:55:09;;;;;;;0.20;0.20;;;19.10;62.00;;;;;;5060283;28;20040;-83
2023/03/22 12:57:37;;;;;;;0.10;0.10;;;18.80;62.80;;;;;;5079493;28;20023;-86
2023/03/22 13:00:13;;;;;;;0.10;0.10;;;18.80;64.20;;;;;;5079461;28;20324;-80
2023/03/22 13:02:45;;;;;;;0.10;0.10;;;16.90;63.80;;;;;;5061786;28;20617;-79
2023/03/22 13:05:16;;;;;;;0.10;0.10;;;18.40;65.70;;;;;;5079122;28;20020;-77
2023/03/22 13:07:45;;;;;;;0.10;0.10;;;17.50;65.50;;;;;;5061493;28;20512;-79
2023/03/22 13:10:29;;;;;;;0.20;0.20;;;17.60;67.70;;;;;;5060721;28;20293;-82
2023/03/22 13:13:14;;;;;;;0.10;0.10;;;17.70;66.80;;;;;;5079079;28;20035;-84
2023/03/22 13:16:10;;;;;;;0.10;0.10;;;17.60;65.30;;;;;;5060830;28;20062;-80